createdAt,value
2023-01-22T00:00:13.093Z,14.18
2023-01-22T00:03:17.806Z,13.77
2023-01-22T00:06:23.672Z,14.43
2023-01-22T00:09:28.511Z,14.15
2023-01-22T00:12:34.631Z,12.63
2023-01-22T00:15:39.552Z,12.15
2023-01-22T00:18:44.420Z,11.75
2023-01-22T00:21:49.271Z,13.90
2023-01-22T00:24:53.809Z,14.80
2023-01-22T00:27:58.628Z,16.23
2023-01-22T00:31:05.610Z,14.98
2023-01-22T00:34:13.362Z,14.93
2023-01-22T00:37:18.549Z,15.02
2023-01-22T00:40:23.141Z,15.80
2023-01-22T00:43:30.082Z,15.98
2023-01-22T00:46:35.319Z,16.67
2023-01-22T00:49:39.921Z,15.65
2023-01-22T00:52:44.653Z,16.30
2023-01-22T00:56:01.073Z,15.57
2023-01-22T00:59:10.342Z,16.40
2023-01-22T01:02:16.116Z,15.27
2023-01-22T01:05:20.962Z,14.98
2023-01-22T01:08:27.123Z,14.95
2023-01-22T01:11:31.959Z,15.00
2023-01-22T01:14:36.639Z,15.18
2023-01-22T01:17:41.388Z,16.90
2023-01-22T01:20:54.759Z,15.20
2023-01-22T01:24:00.206Z,14.85
2023-01-22T01:27:05.362Z,14.45
2023-01-22T01:30:10.821Z,13.65
2023-01-22T01:33:15.911Z,14.65
2023-01-22T01:36:46.181Z,12.68
2023-01-22T01:39:52.420Z,11.80
2023-01-22T01:42:57.288Z,12.90
2023-01-22T01:46:03.897Z,13.38
2023-01-22T01:49:21.468Z,13.00
2023-01-22T01:52:28.169Z,12.65
2023-01-22T01:55:35.452Z,12.23
2023-01-22T01:58:42.930Z,12.48
2023-01-22T02:01:53.173Z,10.65
2023-01-22T02:04:58.001Z,11.35
2023-01-22T02:08:03.442Z,12.35
2023-01-22T02:11:09.146Z,11.27
2023-01-22T02:14:18.159Z,12.20
2023-01-22T02:17:23.012Z,12.35
2023-01-22T02:20:35.970Z,12.15
2023-01-22T02:23:40.753Z,11.18
2023-01-22T02:26:45.975Z,12.43
2023-01-22T02:29:55.302Z,12.05
2023-01-22T02:33:00.576Z,10.65
2023-01-22T02:36:05.906Z,10.32
2023-01-22T02:39:10.846Z,10.80
2023-01-22T02:42:16.276Z,10.20
2023-01-22T02:45:23.316Z,9.68
2023-01-22T02:48:28.209Z,10.63
2023-01-22T02:51:33.171Z,12.38
2023-01-22T02:54:38.158Z,13.25
2023-01-22T02:57:43.049Z,11.23
2023-01-22T03:00:47.799Z,11.55
2023-01-22T03:04:10.781Z,14.38
2023-01-22T03:07:17.640Z,14.93
2023-01-22T03:10:24.006Z,14.00
2023-01-22T03:13:47.570Z,13.13
2023-01-22T03:17:11.358Z,17.65
2023-01-22T03:20:34.712Z,18.80
2023-01-22T03:23:39.798Z,19.52
2023-01-22T03:26:44.994Z,19.20
2023-01-22T03:29:50.775Z,19.80
2023-01-22T03:32:57.225Z,21.50
2023-01-22T03:36:08.810Z,20.80
2023-01-22T03:39:15.563Z,21.05
2023-01-22T03:42:20.909Z,18.08
2023-01-22T03:45:25.822Z,19.48
2023-01-22T03:48:31.995Z,18.48
2023-01-22T03:51:36.901Z,20.00
2023-01-22T03:54:42.145Z,18.42
2023-01-22T03:57:48.687Z,18.73
2023-01-22T04:00:57.638Z,18.48
2023-01-22T04:04:03.011Z,18.40
2023-01-22T04:07:09.596Z,18.77
2023-01-22T04:10:14.483Z,19.02
2023-01-22T04:13:19.556Z,18.75
2023-01-22T04:16:27.695Z,18.15
2023-01-22T04:19:51.299Z,18.27
2023-01-22T04:23:22.410Z,18.08
2023-01-22T04:26:29.499Z,19.50
2023-01-22T04:29:36.365Z,20.38
2023-01-22T04:32:44.268Z,19.90
2023-01-22T04:35:55.712Z,20.25
2023-01-22T04:39:00.769Z,19.70
2023-01-22T04:42:06.144Z,20.88
2023-01-22T04:45:11.562Z,19.52
2023-01-22T04:48:16.731Z,19.75
2023-01-22T04:51:22.784Z,19.25
2023-01-22T04:54:28.115Z,17.45
2023-01-22T04:57:33.114Z,18.50
2023-01-22T05:00:38.021Z,17.45
2023-01-22T05:03:43.630Z,14.90
2023-01-22T05:06:48.514Z,17.00
2023-01-22T05:09:53.519Z,16.38
2023-01-22T05:13:03.529Z,17.17
2023-01-22T05:16:09.056Z,16.42
2023-01-22T05:19:14.567Z,15.63
2023-01-22T05:22:19.587Z,15.48
2023-01-22T05:25:26.384Z,14.68
2023-01-22T05:28:31.167Z,14.23
2023-01-22T05:31:42.766Z,14.57
2023-01-22T05:35:13.943Z,10.85
2023-01-22T05:38:18.885Z,13.45
2023-01-22T05:41:23.880Z,14.25
2023-01-22T05:44:33.384Z,13.18
2023-01-22T05:47:39.072Z,13.13
2023-01-22T05:50:49.628Z,14.70
2023-01-22T05:53:54.776Z,14.18
2023-01-22T05:57:04.065Z,14.68
2023-01-22T06:00:10.479Z,14.90
2023-01-22T06:03:21.355Z,13.23
2023-01-22T06:06:29.735Z,13.88
2023-01-22T06:09:35.135Z,16.05
2023-01-22T06:12:41.530Z,15.32
2023-01-22T06:15:46.597Z,14.75
2023-01-22T06:19:12.590Z,14.55
2023-01-22T06:22:21.993Z,15.45
2023-01-22T06:25:31.880Z,15.57
2023-01-22T06:28:45.927Z,15.70
2023-01-22T06:31:51.297Z,15.50
2023-01-22T06:34:57.686Z,15.60
2023-01-22T06:38:02.474Z,12.60
2023-01-22T06:41:10.369Z,16.27
2023-01-22T06:44:15.312Z,15.13
2023-01-22T06:47:20.431Z,14.60
2023-01-22T06:50:25.310Z,13.50
2023-01-22T06:53:30.239Z,13.32
2023-01-22T06:56:35.132Z,13.82
2023-01-22T06:59:42.173Z,11.68
2023-01-22T07:02:46.901Z,10.85
2023-01-22T07:05:59.988Z,10.45
2023-01-22T07:09:05.127Z,15.95
2023-01-22T07:12:09.889Z,12.27
2023-01-22T07:15:14.745Z,11.10
2023-01-22T07:18:20.937Z,10.95
2023-01-22T07:21:27.124Z,8.65
2023-01-22T07:24:32.329Z,11.25
2023-01-22T07:27:38.440Z,9.82
2023-01-22T07:30:46.327Z,11.32
2023-01-22T07:33:51.105Z,7.82
2023-01-22T07:36:55.936Z,10.25
2023-01-22T07:40:00.684Z,10.77
2023-01-22T07:43:06.888Z,10.65
2023-01-22T07:46:12.187Z,10.20
2023-01-22T07:49:17.002Z,10.80
2023-01-22T07:52:21.973Z,11.95
2023-01-22T07:55:26.973Z,12.15
2023-01-22T07:58:32.315Z,12.25
2023-01-22T08:01:36.889Z,12.25
2023-01-22T08:04:42.690Z,11.75
2023-01-22T08:07:47.797Z,11.55
2023-01-22T08:10:52.904Z,11.05
2023-01-22T08:13:57.903Z,11.10
2023-01-22T08:17:03.072Z,9.27
2023-01-22T08:20:10.399Z,11.70
2023-01-22T08:23:15.392Z,11.75
2023-01-22T08:26:20.088Z,10.13
2023-01-22T08:29:24.980Z,11.63
2023-01-22T08:32:30.606Z,11.75
2023-01-22T08:35:38.931Z,11.27
2023-01-22T08:38:44.064Z,12.30
2023-01-22T08:41:48.915Z,11.02
2023-01-22T08:44:53.750Z,11.95
2023-01-22T08:47:59.812Z,12.27
2023-01-22T08:51:04.897Z,10.38
2023-01-22T08:54:09.657Z,11.88
2023-01-22T08:57:15.674Z,11.32
2023-01-22T09:00:22.126Z,11.60
2023-01-22T09:03:26.847Z,11.05
2023-01-22T09:06:32.894Z,10.52
2023-01-22T09:09:37.737Z,11.02
2023-01-22T09:12:42.632Z,11.82
2023-01-22T09:15:47.524Z,11.88
2023-01-22T09:18:52.912Z,11.95
2023-01-22T09:21:57.746Z,11.10
2023-01-22T09:25:02.889Z,12.10
2023-01-22T09:28:09.166Z,11.25
2023-01-22T09:31:14.766Z,11.57
2023-01-22T09:34:20.044Z,12.00
2023-01-22T09:37:25.260Z,11.25
2023-01-22T09:40:42.329Z,10.48
2023-01-22T09:44:16.875Z,11.88
2023-01-22T09:47:35.511Z,9.35
2023-01-22T09:50:41.167Z,10.70
2023-01-22T09:53:57.221Z,12.63
2023-01-22T09:57:06.195Z,10.75
2023-01-22T10:00:17.883Z,11.35
2023-01-22T10:03:33.428Z,12.00
2023-01-22T10:06:40.332Z,13.10
2023-01-22T10:09:55.923Z,12.30
2023-01-22T10:13:13.472Z,13.02
2023-01-22T10:16:18.337Z,12.45
2023-01-22T10:19:56.723Z,11.50
2023-01-22T10:23:15.275Z,12.45
2023-01-22T10:26:28.899Z,12.50
2023-01-22T10:29:34.818Z,11.23
2023-01-22T10:32:39.392Z,11.77
2023-01-22T10:35:48.204Z,10.93
2023-01-22T10:39:12.070Z,9.95
2023-01-22T10:42:24.894Z,10.05
2023-01-22T10:45:29.851Z,11.15
2023-01-22T10:48:34.883Z,8.98
2023-01-22T10:51:42.665Z,9.85
2023-01-22T10:54:56.781Z,7.97
2023-01-22T10:58:06.442Z,8.25
2023-01-22T11:01:39.596Z,7.82
2023-01-22T11:04:44.453Z,10.20
2023-01-22T11:07:57.802Z,10.77
2023-01-22T11:11:07.393Z,15.43
2023-01-22T11:14:20.394Z,13.52
2023-01-22T11:17:38.165Z,8.73
2023-01-22T11:20:54.702Z,9.75
2023-01-22T11:24:02.589Z,8.65
2023-01-22T11:27:41.472Z,9.52
2023-01-22T11:31:09.116Z,11.55
2023-01-22T11:35:05.257Z,8.57
2023-01-22T11:38:10.103Z,8.75
2023-01-22T11:41:37.462Z,7.82
2023-01-22T11:45:01.430Z,6.72
2023-01-22T11:48:54.026Z,8.85
2023-01-22T11:52:24.030Z,9.32
2023-01-22T11:55:49.423Z,8.95
2023-01-22T11:59:20.928Z,8.85
2023-01-22T12:02:44.043Z,10.48
2023-01-22T12:05:58.247Z,9.15
2023-01-22T12:09:47.944Z,10.07
2023-01-22T12:13:17.324Z,10.65
2023-01-22T12:17:05.635Z,10.32
2023-01-22T12:20:29.598Z,8.98
2023-01-22T12:23:51.127Z,8.98
2023-01-22T12:27:30.391Z,8.90
2023-01-22T12:31:11.121Z,9.63
2023-01-22T12:34:37.715Z,9.13
2023-01-22T12:37:58.553Z,10.00
2023-01-22T12:41:33.847Z,9.57
2023-01-22T12:45:21.215Z,10.82
2023-01-22T12:48:33.111Z,9.98
2023-01-22T12:51:47.648Z,10.40
2023-01-22T13:36:56.954Z,12.88
2023-01-22T13:40:13.272Z,12.07
2023-01-22T13:43:19.928Z,12.77
2023-01-22T13:46:26.803Z,10.98
2023-01-22T13:49:35.339Z,10.05
2023-01-22T13:52:40.303Z,10.40
2023-01-22T13:55:45.426Z,11.88
2023-01-22T13:58:50.798Z,9.88
2023-01-22T14:01:55.581Z,9.70
2023-01-22T14:05:01.579Z,9.88
2023-01-22T14:08:09.725Z,9.48
2023-01-22T14:11:17.541Z,9.07
2023-01-22T14:14:22.362Z,10.43
2023-01-22T14:17:34.101Z,10.27
2023-01-22T14:20:48.188Z,9.50
2023-01-22T14:23:53.049Z,9.52
2023-01-22T14:26:57.958Z,9.07
2023-01-22T14:30:02.431Z,9.07
2023-01-22T14:33:10.107Z,8.40
2023-01-22T14:36:14.808Z,8.40
2023-01-22T14:39:20.506Z,9.02
2023-01-22T14:42:26.575Z,8.73
2023-01-22T14:45:31.903Z,9.10
2023-01-22T14:48:36.714Z,8.63
2023-01-22T14:51:41.370Z,8.60
2023-01-22T14:54:45.868Z,9.75
2023-01-22T14:57:51.001Z,9.73
2023-01-22T15:00:55.843Z,8.73
2023-01-22T15:04:01.305Z,9.57
2023-01-22T15:07:06.300Z,9.57
2023-01-22T15:10:11.793Z,9.93
2023-01-22T15:13:16.680Z,10.07
2023-01-22T15:16:21.547Z,9.13
2023-01-22T15:19:26.752Z,9.35
2023-01-22T15:22:31.641Z,9.68
2023-01-22T15:25:36.635Z,9.80
2023-01-22T15:28:41.521Z,9.20
2023-01-22T15:31:46.157Z,10.77
2023-01-22T15:34:50.680Z,9.90
2023-01-22T15:37:55.583Z,9.75
2023-01-22T15:41:20.332Z,9.52
2023-01-22T15:44:25.525Z,9.63
2023-01-22T15:47:30.488Z,10.60
2023-01-22T15:50:35.389Z,9.52
2023-01-22T15:53:41.144Z,7.60
2023-01-22T15:56:45.776Z,7.88
2023-01-22T15:59:51.509Z,10.43
2023-01-22T16:02:56.424Z,8.45
2023-01-22T16:06:29.138Z,9.90
2023-01-22T16:09:34.175Z,9.05
2023-01-22T16:12:39.252Z,9.27
2023-01-22T16:15:43.910Z,11.32
2023-01-22T16:18:49.930Z,9.30
2023-01-22T16:21:54.889Z,10.13
2023-01-22T16:24:59.833Z,10.38
2023-01-22T16:28:04.728Z,9.43
2023-01-22T16:31:13.860Z,9.82
2023-01-22T16:34:23.541Z,9.88
2023-01-22T16:37:28.689Z,8.88
2023-01-22T16:40:33.602Z,9.18
2023-01-22T16:43:38.237Z,8.27
2023-01-22T16:46:49.765Z,9.02
2023-01-22T16:49:54.431Z,7.57
2023-01-22T16:52:59.526Z,8.25
2023-01-22T16:56:04.707Z,9.57
2023-01-22T16:59:10.686Z,11.57
2023-01-22T17:02:16.557Z,8.77
2023-01-22T17:05:21.922Z,9.00
2023-01-22T17:08:27.638Z,8.05
2023-01-22T17:11:32.288Z,9.48
2023-01-22T17:14:38.472Z,9.52
2023-01-22T17:17:43.051Z,9.02
2023-01-22T17:21:01.356Z,7.97
2023-01-22T17:24:07.332Z,7.82
2023-01-22T17:27:18.163Z,8.48
2023-01-22T17:30:23.041Z,8.57
2023-01-22T17:33:28.974Z,9.07
2023-01-22T17:36:34.418Z,12.07
2023-01-22T17:39:40.822Z,8.27
2023-01-22T17:42:45.795Z,8.38
2023-01-22T17:45:50.833Z,8.13
2023-01-22T17:48:56.298Z,8.05
2023-01-22T17:52:00.975Z,11.10
2023-01-22T17:55:06.972Z,8.80
2023-01-22T17:58:11.906Z,8.80
2023-01-22T18:01:18.949Z,11.90
2023-01-22T18:04:24.041Z,11.38
2023-01-22T18:07:29.118Z,11.38
2023-01-22T18:10:34.176Z,9.32
2023-01-22T18:13:39.715Z,9.38
2023-01-22T18:16:45.831Z,8.25
2023-01-22T18:19:50.892Z,8.15
2023-01-22T18:22:56.057Z,7.47
2023-01-22T18:26:05.464Z,7.55
2023-01-22T18:29:11.605Z,7.90
2023-01-22T18:32:16.641Z,7.63
2023-01-22T18:35:21.426Z,7.35
2023-01-22T18:38:28.484Z,7.20
2023-01-22T18:41:33.415Z,7.78
2023-01-22T18:44:39.160Z,7.15
2023-01-22T18:47:43.819Z,7.32
2023-01-22T18:50:53.044Z,7.45
2023-01-22T18:53:59.416Z,7.13
2023-01-22T18:57:04.386Z,9.25
2023-01-22T19:00:11.539Z,9.05
2023-01-22T19:03:16.210Z,10.38
2023-01-22T19:06:23.559Z,12.98
2023-01-22T19:09:28.527Z,10.45
2023-01-22T19:12:33.673Z,9.25
2023-01-22T19:15:38.534Z,8.80
2023-01-22T19:18:46.601Z,9.88
2023-01-22T19:21:55.389Z,9.77
2023-01-22T19:25:02.654Z,9.15
2023-01-22T19:28:07.861Z,8.25
2023-01-22T19:31:43.816Z,7.65
2023-01-22T19:34:48.972Z,7.53
2023-01-22T19:37:53.853Z,7.60
2023-01-22T19:40:58.890Z,7.32
2023-01-22T19:44:04.800Z,8.23
2023-01-22T19:47:11.130Z,26.02
2023-01-22T19:50:16.314Z,8.27
2023-01-22T19:53:21.319Z,7.40
2023-01-22T19:56:32.000Z,7.70
2023-01-22T19:59:37.153Z,7.93
2023-01-22T20:02:42.600Z,7.13
2023-01-22T20:05:48.113Z,9.55
2023-01-22T20:08:55.627Z,7.63
2023-01-22T20:12:01.177Z,8.77
2023-01-22T20:15:07.009Z,8.45
2023-01-22T20:18:11.705Z,9.18
2023-01-22T20:21:17.817Z,8.52
2023-01-22T20:24:23.036Z,8.75
2023-01-22T20:27:27.914Z,9.40
2023-01-22T20:30:32.882Z,10.45
2023-01-22T20:33:37.747Z,11.48
2023-01-22T20:36:42.432Z,14.48
2023-01-22T20:39:47.162Z,12.95
2023-01-22T20:42:52.009Z,12.60
2023-01-22T20:45:59.271Z,19.38
2023-01-22T20:49:04.127Z,16.33
2023-01-22T20:52:09.293Z,15.10
2023-01-22T20:55:15.612Z,15.45
2023-01-22T20:58:20.763Z,15.35
2023-01-22T21:01:26.637Z,15.45
2023-01-22T21:04:31.469Z,10.73
2023-01-22T21:07:36.200Z,16.02
2023-01-22T21:10:41.464Z,17.20
2023-01-22T21:13:48.787Z,13.57
2023-01-22T21:16:53.757Z,11.88
2023-01-22T21:19:58.711Z,11.05
2023-01-22T21:23:03.156Z,9.93
2023-01-22T21:26:11.914Z,9.98
2023-01-22T21:29:20.249Z,9.05
2023-01-22T21:32:25.281Z,9.38
2023-01-22T21:35:30.062Z,10.00
2023-01-22T21:38:35.913Z,9.43
2023-01-22T21:41:40.781Z,9.52
2023-01-22T21:45:04.538Z,9.43
2023-01-22T21:48:09.897Z,10.25
2023-01-22T21:51:15.223Z,9.38
2023-01-22T21:54:37.785Z,9.65
2023-01-22T21:57:44.145Z,9.02
2023-01-22T22:00:49.091Z,9.32
2023-01-22T22:03:54.120Z,9.65
2023-01-22T22:06:58.983Z,9.63
2023-01-22T22:10:04.834Z,8.90
2023-01-22T22:13:09.779Z,9.02
2023-01-22T22:16:14.714Z,9.43
2023-01-22T22:19:20.743Z,8.90
2023-01-22T22:22:25.735Z,8.77
2023-01-22T22:25:32.449Z,9.27
2023-01-22T22:28:37.499Z,8.82
2023-01-22T22:31:42.376Z,9.10
2023-01-22T22:34:50.489Z,8.95
2023-01-22T22:37:55.552Z,9.07
2023-01-22T22:41:03.745Z,9.07
2023-01-22T22:44:10.340Z,8.63
2023-01-22T22:47:15.502Z,8.77
2023-01-22T22:50:20.965Z,10.05
2023-01-22T22:53:26.615Z,9.65
2023-01-22T22:56:31.886Z,9.57
2023-01-22T22:59:36.846Z,10.35
2023-01-22T23:02:42.681Z,9.43
2023-01-22T23:05:47.868Z,10.20
2023-01-22T23:08:55.294Z,10.15
2023-01-22T23:12:00.214Z,9.70
2023-01-22T23:15:06.037Z,9.77
2023-01-22T23:18:10.837Z,10.48
2023-01-22T23:21:19.829Z,9.95
2023-01-22T23:24:25.504Z,11.18
2023-01-22T23:27:30.314Z,10.73
2023-01-22T23:30:35.591Z,11.23
2023-01-22T23:33:41.324Z,11.00
2023-01-22T23:36:48.296Z,11.40
2023-01-22T23:39:53.577Z,11.40
2023-01-22T23:42:58.657Z,10.82
2023-01-22T23:46:26.217Z,10.65
2023-01-22T23:49:31.297Z,10.40
2023-01-22T23:52:37.775Z,10.82
2023-01-22T23:55:43.044Z,9.98
2023-01-22T23:58:48.267Z,10.55
